AirNav   Everest Fuels
 
 1054 users online  

0WN5 Potts Field Ultralight Flightpark
North Cape, Wisconsin, USA

GOING TO NORTH CAPE?


FAA INFORMATION EFFECTIVE 10 SEPTEMBER 2020

Location

FAA Identifier: 0WN5
Lat/Long: 42-47-59.0600N 088-02-55.3000W
42-47.984333N 088-02.921667W
42.7997389,-88.0486944
(estimated)
Elevation: 815 ft. / 248 m (estimated)
Variation: 02W (1995)
From city: 2 miles NW of NORTH CAPE, WI
Time zone: UTC -5 (UTC -6 during Standard Time)
Zip code: 53126

Ultralight Flight Park Operations

Ultralight Flight Park use: Private use. Permission required prior to landing
Activation date: 05/1999
Control tower: no
ARTCC: CHICAGO CENTER
FSS: GREEN BAY FLIGHT SERVICE STATION
Attendance: CONTINUOUS
Wind indicator: yes
Segmented circle: no

Ultralight Flight Park Communications

WX ASOS at RAC (11 nm E): 121.425 (262-635-0959)
WX ASOS at MKE (11 nm NE): 126.4 (414-489-2168)
WX AWOS-3 at BUU (13 nm SW): 125.275 (262-757-0907)
WX ASOS at ENW (13 nm SE): PHONE 262-652-7730
WX AWOS-3PT at 57C (14 nm W): 118.125 (262-642-1845)
WX AWOS-3 at UES (17 nm NW): 118.875 (262-521-5226)
WX AWOS-3 at MWC (19 nm N): PHONE 414-461-2954

Nearby radio navigation aids

VOR radial/distance  VOR name  Freq  Var
BAEr149/21.7BADGER VOR/DME116.4002E
OBKr355/35.0NORTHBROOK VOR/DME113.0002W
BJBr176/(37.5)WEST BEND VOR109.8001W

 
NDB name  Hdg/Dist  Freq  Var  ID
CODEE358/14.438902WEN . -.
LAKE LAWN078/24.740402WLVV .-.. ...- ...-
ROCK RIVER128/37.237101WRYV .-. -.-- ...-

Ultralight Flight Park Services

Runway Information

Runway 10U/28U

Dimensions: 150 x 50 ft. / 46 x 15 m
Surface: turf
Runway edge markings: EDGES & THLDS MKD WITH RED & WHITE MARKERS.
RUNWAY 10U  RUNWAY 28U
Traffic pattern: leftleft
Obstructions: 18 ft. pole, 600 ft. from runwaynone

Ultralight Flight Park Ownership and Management from official FAA records

Ownership: Privately-owned
Owner: CATHERINE R. POTTS
10411 W 5 MI RD
FRANKSVILLE, WI 53126
Phone 262-835-2977
Manager: ARHTUR POTTS
10411 W 5 MI RD
FRANKSVILLE, WI 53126
Phone 262-835-2977

Ultralight Flight Park Operational Statistics

Aircraft based on the field: 1
Ultralights: 1
    

Additional Remarks

200 FT TOWER 1500 FT N, 100 FT PLINES 2300 FT N & 5700 FT E.
FOR CD CTC CHICAGO ARTCC AT 630-906-8921.

Instrument Procedures

There are no published instrument procedures at 0WN5.

Some nearby airports with instrument procedures:

KRAC - Batten International Airport (11 nm E)
KMKE - General Mitchell International Airport (11 nm NE)
KBUU - Burlington Municipal Airport (13 nm SW)
KENW - Kenosha Regional Airport (13 nm SE)
57C - East Troy Municipal Airport (14 nm W)
KUES - Waukesha County Airport (17 nm NW)
KMWC - Lawrence J Timmerman Airport (19 nm N)
C02 - Grand Geneva Resort Airport (19 nm SW)
 
Loc | Ops | Rwys | IFR | FBO | Links
Com | Nav | Svcs | Stats | Notes
Area around 0WN5 (Potts Field Ultralight Flightpark)
 
Road maps at: MapQuest Bing Google
 
Aerial photo
No photo
 
Sectional chart

 
Airport distance calculator
Flying to Potts Field Ultralight Flightpark? Find the distance to fly.

From to 0WN5

Sunrise and sunset
Times for 18-Sep-2020
 Local
(UTC-5)
 Zulu
(UTC)
Morning civil twilight06:0911:09
Sunrise06:3711:37
Sunset18:5523:55
Evening civil twilight19:2300:23

Current date and time
Zulu (UTC)  19-Sep-2020 01:43:04
Local (UTC-5)  18-Sep-2020 20:43:04
 
METAR
KRAC 
10nm E 
190053Z AUTO 06005KT 10SM CLR 10/03 A3038 RMK AO2 SLP289 T01000033
KMKE 
11nm NE 
190052Z 06006KT 10SM CLR 11/03 A3036 RMK AO2 SLP284 T01110033
KENW 
13nm SE 
190053Z 04004KT 10SM CLR 09/04 A3037 RMK AO2 SLP286 T00940039
KBUU 
13nm SW 
190115Z AUTO 00000KT 10SM CLR 08/05 A3038 RMK AO2 T00770050 PWINO
KUES 
14nm N 
190045Z 10003KT 10SM SKC 08/03 A3037
K57C 
14nm W 
190115Z AUTO 00000KT 10SM CLR 07/06 A3038 RMK AO2 T00720056
KMWC 
19nm N 
190045Z 06004KT 10SM SKC 11/01 A3037
TAF
KMKE 
11nm NE 
182038Z 1821/1924 05010KT P6SM SCT040 FM190700 00000KT P6SM FEW250 FM191500 15004KT P6SM FEW030 FM192200 16008KT P6SM FEW120
KENW 
13nm SE 
182059Z 1821/1918 06011KT P6SM SCT040 FM182200 05006KT P6SM FEW100 FM191400 20003KT P6SM FEW100 FM191700 17005KT P6SM FEW040
KUES 
14nm N 
181120Z 1812/1912 03008KT P6SM BKN035 FM181400 05009KT P6SM BKN040 FM190100 06004KT P6SM FEW040 FM190400 VRB03KT P6SM SKC
NOTAMs
Click for the latest NOTAMs
NOTAMs are issued by the DoD/FAA and will open in a separate window not controlled by AirNav.

 

 
 

Would you like to see your business listed on this page?

 If your business provides an interesting product or service to pilots, flight crews, aircraft, or users of the Potts Field Ultralight Flightpark, you should consider listing it here.  To start the listing process, click on the button below
 
Add a business
 

Other Pages about Potts Field Ultralight Flightpark

Update a link
 
Copyright © AirNav, LLC. All rights reserved. Privacy Policy  Contact